sensor_id;sensor_type;location;lat;lon;timestamp;pressure;altitude;pressure_sealevel;temperature;humidity
19457;BME280;9867;48.094;11.478;2022-07-29T00:01:41;95168.69;;;20.19;100.00
19457;BME280;9867;48.094;11.478;2022-07-29T00:04:12;95176.47;;;20.14;100.00
19457;BME280;9867;48.094;11.478;2022-07-29T00:06:41;95166.00;;;19.99;100.00
19457;BME280;9867;48.094;11.478;2022-07-29T00:09:09;95159.66;;;19.85;100.00
19457;BME280;9867;48.094;11.478;2022-07-29T00:11:37;95170.06;;;19.80;100.00
19457;BME280;9867;48.094;11.478;2022-07-29T00:14:05;95152.66;;;19.90;100.00
19457;BME280;9867;48.094;11.478;2022-07-29T00:16:33;95157.13;;;19.95;100.00
19457;BME280;9867;48.094;11.478;2022-07-29T00:19:01;95161.28;;;19.96;100.00
19457;BME280;9867;48.094;11.478;2022-07-29T00:21:31;95157.88;;;19.90;100.00
19457;BME280;9867;48.094;11.478;2022-07-29T00:23:59;95161.06;;;20.02;100.00
19457;BME280;9867;48.094;11.478;2022-07-29T00:26:28;95159.78;;;20.10;100.00
19457;BME280;9867;48.094;11.478;2022-07-29T00:28:58;95151.94;;;20.10;100.00
19457;BME280;9867;48.094;11.478;2022-07-29T00:31:46;95157.41;;;20.08;100.00
19457;BME280;9867;48.094;11.478;2022-07-29T00:34:14;95153.81;;;20.15;100.00
19457;BME280;9867;48.094;11.478;2022-07-29T00:36:58;95157.16;;;20.10;100.00
19457;BME280;9867;48.094;11.478;2022-07-29T00:39:26;95153.28;;;20.13;100.00
19457;BME280;9867;48.094;11.478;2022-07-29T00:41:54;95149.91;;;20.17;100.00
19457;BME280;9867;48.094;11.478;2022-07-29T00:44:22;95151.94;;;20.10;100.00
19457;BME280;9867;48.094;11.478;2022-07-29T00:46:50;95135.81;;;20.03;100.00
19457;BME280;9867;48.094;11.478;2022-07-29T00:49:18;95140.78;;;20.15;100.00
19457;BME280;9867;48.094;11.478;2022-07-29T00:51:46;95137.94;;;20.21;100.00
19457;BME280;9867;48.094;11.478;2022-07-29T00:54:17;95134.59;;;20.31;100.00
19457;BME280;9867;48.094;11.478;2022-07-29T00:56:45;95133.00;;;20.35;100.00
19457;BME280;9867;48.094;11.478;2022-07-29T00:59:13;95129.94;;;20.38;100.00
19457;BME280;9867;48.094;11.478;2022-07-29T01:01:41;95128.84;;;20.29;100.00
19457;BME280;9867;48.094;11.478;2022-07-29T01:04:08;95120.75;;;20.35;100.00
19457;BME280;9867;48.094;11.478;2022-07-29T01:06:37;95113.25;;;20.39;100.00
19457;BME280;9867;48.094;11.478;2022-07-29T01:09:05;95114.56;;;20.47;100.00
19457;BME280;9867;48.094;11.478;2022-07-29T01:11:35;95104.41;;;20.50;100.00
19457;BME280;9867;48.094;11.478;2022-07-29T01:14:06;95114.06;;;20.60;100.00
19457;BME280;9867;48.094;11.478;2022-07-29T01:16:37;95115.13;;;20.74;100.00
19457;BME280;9867;48.094;11.478;2022-07-29T01:19:23;95124.50;;;20.70;100.00
19457;BME280;9867;48.094;11.478;2022-07-29T01:22:10;95126.88;;;20.76;100.00
19457;BME280;9867;48.094;11.478;2022-07-29T01:24:55;95121.38;;;20.63;100.00
19457;BME280;9867;48.094;11.478;2022-07-29T01:27:41;95115.13;;;20.54;100.00
19457;BME280;9867;48.094;11.478;2022-07-29T01:30:14;95115.09;;;20.49;100.00
19457;BME280;9867;48.094;11.478;2022-07-29T01:32:42;95109.88;;;20.43;100.00
19457;BME280;9867;48.094;11.478;2022-07-29T01:35:17;95107.72;;;20.35;100.00
19457;BME280;9867;48.094;11.478;2022-07-29T01:37:52;95105.44;;;20.44;100.00
19457;BME280;9867;48.094;11.478;2022-07-29T01:40:29;95090.06;;;20.37;100.00
19457;BME280;9867;48.094;11.478;2022-07-29T01:43:00;95098.16;;;20.51;100.00
19457;BME280;9867;48.094;11.478;2022-07-29T01:45:37;95108.84;;;20.45;100.00
19457;BME280;9867;48.094;11.478;2022-07-29T01:48:11;95108.00;;;20.34;100.00
19457;BME280;9867;48.094;11.478;2022-07-29T01:50:46;95105.91;;;20.26;100.00
19457;BME280;9867;48.094;11.478;2022-07-29T01:53:18;95115.03;;;20.23;100.00
19457;BME280;9867;48.094;11.478;2022-07-29T01:55:50;95100.97;;;20.29;100.00
19457;BME280;9867;48.094;11.478;2022-07-29T01:58:19;95097.03;;;20.32;100.00
19457;BME280;9867;48.094;11.478;2022-07-29T02:00:50;95098.09;;;20.36;100.00
19457;BME280;9867;48.094;11.478;2022-07-29T02:03:20;95097.06;;;20.27;100.00
19457;BME280;9867;48.094;11.478;2022-07-29T02:05:50;95097.81;;;20.22;100.00
19457;BME280;9867;48.094;11.478;2022-07-29T02:08:19;95088.66;;;20.04;100.00
19457;BME280;9867;48.094;11.478;2022-07-29T02:10:50;95090.50;;;20.04;100.00
19457;BME280;9867;48.094;11.478;2022-07-29T02:13:20;95085.06;;;20.21;100.00
19457;BME280;9867;48.094;11.478;2022-07-29T02:15:51;95082.47;;;20.26;100.00
19457;BME280;9867;48.094;11.478;2022-07-29T02:18:23;95089.47;;;20.20;100.00
19457;BME280;9867;48.094;11.478;2022-07-29T02:20:54;95086.88;;;20.20;100.00
19457;BME280;9867;48.094;11.478;2022-07-29T02:23:24;95075.69;;;20.30;100.00
19457;BME280;9867;48.094;11.478;2022-07-29T02:25:54;95069.69;;;20.24;100.00
19457;BME280;9867;48.094;11.478;2022-07-29T02:28:25;95070.19;;;20.16;100.00
19457;BME280;9867;48.094;11.478;2022-07-29T02:30:56;95069.66;;;20.04;100.00
19457;BME280;9867;48.094;11.478;2022-07-29T02:33:26;95070.34;;;19.84;100.00
19457;BME280;9867;48.094;11.478;2022-07-29T02:35:55;95065.41;;;19.78;100.00
19457;BME280;9867;48.094;11.478;2022-07-29T02:38:25;95059.38;;;19.72;100.00
19457;BME280;9867;48.094;11.478;2022-07-29T02:41:15;95056.75;;;19.67;100.00
19457;BME280;9867;48.094;11.478;2022-07-29T02:43:47;95059.63;;;19.65;100.00
19457;BME280;9867;48.094;11.478;2022-07-29T02:46:21;95056.22;;;19.60;100.00
19457;BME280;9867;48.094;11.478;2022-07-29T02:48:59;95051.75;;;19.50;100.00
19457;BME280;9867;48.094;11.478;2022-07-29T02:51:38;95051.00;;;19.55;100.00
19457;BME280;9867;48.094;11.478;2022-07-29T02:54:13;95049.44;;;19.54;100.00
19457;BME280;9867;48.094;11.478;2022-07-29T02:56:45;95050.13;;;19.44;100.00
19457;BME280;9867;48.094;11.478;2022-07-29T02:59:17;95051.88;;;19.28;100.00
19457;BME280;9867;48.094;11.478;2022-07-29T03:01:49;95044.38;;;19.32;100.00
19457;BME280;9867;48.094;11.478;2022-07-29T03:04:19;95050.56;;;19.26;100.00
19457;BME280;9867;48.094;11.478;2022-07-29T03:06:48;95050.28;;;19.22;100.00
19457;BME280;9867;48.094;11.478;2022-07-29T03:09:17;95051.25;;;19.53;100.00
19457;BME280;9867;48.094;11.478;2022-07-29T03:11:46;95042.16;;;19.56;100.00
19457;BME280;9867;48.094;11.478;2022-07-29T03:14:17;95042.44;;;19.59;100.00
19457;BME280;9867;48.094;11.478;2022-07-29T03:16:46;95042.81;;;19.41;100.00
19457;BME280;9867;48.094;11.478;2022-07-29T03:19:16;95046.91;;;19.22;100.00
19457;BME280;9867;48.094;11.478;2022-07-29T03:21:44;95046.69;;;19.28;100.00
19457;BME280;9867;48.094;11.478;2022-07-29T03:24:24;95041.13;;;19.15;100.00
19457;BME280;9867;48.094;11.478;2022-07-29T03:26:52;95039.03;;;19.06;100.00
19457;BME280;9867;48.094;11.478;2022-07-29T03:29:20;95038.44;;;18.99;100.00
19457;BME280;9867;48.094;11.478;2022-07-29T03:31:50;95047.19;;;18.83;100.00
19457;BME280;9867;48.094;11.478;2022-07-29T03:34:19;95041.50;;;18.86;100.00
19457;BME280;9867;48.094;11.478;2022-07-29T03:36:49;95042.03;;;18.93;100.00
19457;BME280;9867;48.094;11.478;2022-07-29T03:39:20;95044.13;;;18.91;100.00
19457;BME280;9867;48.094;11.478;2022-07-29T03:41:52;95045.31;;;18.73;100.00
19457;BME280;9867;48.094;11.478;2022-07-29T03:44:22;95055.03;;;18.88;100.00
19457;BME280;9867;48.094;11.478;2022-07-29T03:46:53;95044.41;;;18.95;100.00
19457;BME280;9867;48.094;11.478;2022-07-29T03:49:23;95052.31;;;19.10;100.00
19457;BME280;9867;48.094;11.478;2022-07-29T03:51:52;95052.16;;;19.32;100.00
19457;BME280;9867;48.094;11.478;2022-07-29T03:54:20;95052.31;;;19.15;100.00
19457;BME280;9867;48.094;11.478;2022-07-29T03:56:49;95056.28;;;19.23;100.00
19457;BME280;9867;48.094;11.478;2022-07-29T03:59:19;95050.16;;;19.02;100.00
19457;BME280;9867;48.094;11.478;2022-07-29T04:01:48;95054.63;;;19.06;100.00
19457;BME280;9867;48.094;11.478;2022-07-29T04:04:18;95035.81;;;18.89;100.00
19457;BME280;9867;48.094;11.478;2022-07-29T04:06:47;95048.50;;;19.28;100.00
19457;BME280;9867;48.094;11.478;2022-07-29T04:09:16;95046.03;;;19.53;100.00
19457;BME280;9867;48.094;11.478;2022-07-29T04:11:45;95047.56;;;19.49;100.00
19457;BME280;9867;48.094;11.478;2022-07-29T04:14:28;95042.97;;;19.71;100.00
19457;BME280;9867;48.094;11.478;2022-07-29T04:16:56;95056.22;;;19.65;100.00
19457;BME280;9867;48.094;11.478;2022-07-29T04:19:24;95051.31;;;19.68;100.00
19457;BME280;9867;48.094;11.478;2022-07-29T04:21:53;95058.56;;;19.66;100.00
19457;BME280;9867;48.094;11.478;2022-07-29T04:24:21;95064.34;;;19.73;100.00
19457;BME280;9867;48.094;11.478;2022-07-29T04:26:49;95054.22;;;19.87;100.00
19457;BME280;9867;48.094;11.478;2022-07-29T04:29:17;95064.03;;;19.18;100.00
19457;BME280;9867;48.094;11.478;2022-07-29T04:31:45;95061.06;;;18.99;100.00
19457;BME280;9867;48.094;11.478;2022-07-29T04:34:13;95075.09;;;19.40;100.00
19457;BME280;9867;48.094;11.478;2022-07-29T04:36:41;95075.50;;;19.64;100.00
19457;BME280;9867;48.094;11.478;2022-07-29T04:39:10;95076.28;;;19.64;100.00
19457;BME280;9867;48.094;11.478;2022-07-29T04:41:40;95081.84;;;19.93;100.00
19457;BME280;9867;48.094;11.478;2022-07-29T04:44:08;95085.31;;;20.19;100.00
19457;BME280;9867;48.094;11.478;2022-07-29T04:46:36;95089.97;;;20.17;100.00
19457;BME280;9867;48.094;11.478;2022-07-29T04:49:04;95083.19;;;20.06;100.00
19457;BME280;9867;48.094;11.478;2022-07-29T04:51:32;95096.75;;;20.18;100.00
19457;BME280;9867;48.094;11.478;2022-07-29T04:54:00;95101.72;;;20.20;100.00
19457;BME280;9867;48.094;11.478;2022-07-29T04:56:29;95093.88;;;20.15;100.00
19457;BME280;9867;48.094;11.478;2022-07-29T04:58:57;95102.78;;;20.24;100.00
19457;BME280;9867;48.094;11.478;2022-07-29T05:01:25;95096.53;;;20.25;100.00
19457;BME280;9867;48.094;11.478;2022-07-29T05:03:53;95101.47;;;20.31;100.00
19457;BME280;9867;48.094;11.478;2022-07-29T05:06:26;95099.13;;;20.25;100.00
19457;BME280;9867;48.094;11.478;2022-07-29T05:08:54;95108.50;;;20.26;100.00
19457;BME280;9867;48.094;11.478;2022-07-29T05:11:22;95119.69;;;20.16;100.00
19457;BME280;9867;48.094;11.478;2022-07-29T05:13:57;95110.78;;;20.02;100.00
19457;BME280;9867;48.094;11.478;2022-07-29T05:16:25;95114.97;;;20.08;100.00
19457;BME280;9867;48.094;11.478;2022-07-29T05:18:54;95110.88;;;20.27;100.00
19457;BME280;9867;48.094;11.478;2022-07-29T05:21:21;95107.47;;;20.27;100.00
19457;BME280;9867;48.094;11.478;2022-07-29T05:23:49;95115.75;;;20.14;100.00
19457;BME280;9867;48.094;11.478;2022-07-29T05:26:17;95115.75;;;20.08;100.00
19457;BME280;9867;48.094;11.478;2022-07-29T05:28:45;95115.69;;;19.88;100.00
19457;BME280;9867;48.094;11.478;2022-07-29T05:31:14;95121.19;;;19.97;100.00
19457;BME280;9867;48.094;11.478;2022-07-29T05:33:42;95122.03;;;20.07;100.00
19457;BME280;9867;48.094;11.478;2022-07-29T05:36:10;95108.66;;;19.89;100.00
19457;BME280;9867;48.094;11.478;2022-07-29T05:38:38;95123.25;;;19.95;100.00
19457;BME280;9867;48.094;11.478;2022-07-29T05:41:06;95121.22;;;20.07;100.00
19457;BME280;9867;48.094;11.478;2022-07-29T05:43:34;95123.31;;;20.10;100.00
19457;BME280;9867;48.094;11.478;2022-07-29T05:46:03;95128.81;;;20.24;100.00
19457;BME280;9867;48.094;11.478;2022-07-29T05:48:32;95130.63;;;20.18;100.00
19457;BME280;9867;48.094;11.478;2022-07-29T05:51:00;95126.91;;;19.94;100.00
19457;BME280;9867;48.094;11.478;2022-07-29T05:53:28;95125.25;;;19.72;100.00
19457;BME280;9867;48.094;11.478;2022-07-29T05:55:56;95121.69;;;19.94;100.00
19457;BME280;9867;48.094;11.478;2022-07-29T05:58:24;95115.94;;;19.87;100.00
19457;BME280;9867;48.094;11.478;2022-07-29T06:00:52;95120.09;;;19.83;100.00
19457;BME280;9867;48.094;11.478;2022-07-29T06:03:26;95122.28;;;20.06;100.00
19457;BME280;9867;48.094;11.478;2022-07-29T06:05:55;95135.69;;;20.50;100.00
19457;BME280;9867;48.094;11.478;2022-07-29T06:08:23;95130.50;;;20.81;100.00
19457;BME280;9867;48.094;11.478;2022-07-29T06:10:51;95130.25;;;20.92;100.00
19457;BME280;9867;48.094;11.478;2022-07-29T06:13:19;95136.25;;;21.13;100.00
19457;BME280;9867;48.094;11.478;2022-07-29T06:15:47;95133.16;;;21.21;100.00
19457;BME280;9867;48.094;11.478;2022-07-29T06:18:15;95133.63;;;21.28;100.00
19457;BME280;9867;48.094;11.478;2022-07-29T06:20:43;95128.94;;;21.35;100.00
19457;BME280;9867;48.094;11.478;2022-07-29T06:23:12;95132.59;;;21.39;100.00
19457;BME280;9867;48.094;11.478;2022-07-29T06:25:40;95140.94;;;21.47;100.00
19457;BME280;9867;48.094;11.478;2022-07-29T06:28:08;95144.06;;;21.43;100.00
19457;BME280;9867;48.094;11.478;2022-07-29T06:30:36;95146.16;;;21.31;100.00
19457;BME280;9867;48.094;11.478;2022-07-29T06:33:05;95138.31;;;21.41;100.00
19457;BME280;9867;48.094;11.478;2022-07-29T06:35:33;95140.38;;;21.50;100.00
19457;BME280;9867;48.094;11.478;2022-07-29T06:38:07;95139.66;;;21.24;100.00
19457;BME280;9867;48.094;11.478;2022-07-29T06:40:57;95149.00;;;21.60;100.00
19457;BME280;9867;48.094;11.478;2022-07-29T06:43:30;95141.63;;;21.77;100.00
19457;BME280;9867;48.094;11.478;2022-07-29T06:46:01;95150.47;;;21.87;100.00
19457;BME280;9867;48.094;11.478;2022-07-29T06:48:30;95152.56;;;21.90;100.00
19457;BME280;9867;48.094;11.478;2022-07-29T06:50:58;95155.69;;;21.92;100.00
19457;BME280;9867;48.094;11.478;2022-07-29T06:53:26;95156.81;;;21.70;100.00
19457;BME280;9867;48.094;11.478;2022-07-29T06:55:54;95156.50;;;21.87;100.00
19457;BME280;9867;48.094;11.478;2022-07-29T06:58:24;95146.28;;;21.96;100.00
19457;BME280;9867;48.094;11.478;2022-07-29T07:00:55;95164.28;;;22.07;100.00
19457;BME280;9867;48.094;11.478;2022-07-29T07:03:23;95164.53;;;22.06;100.00
19457;BME280;9867;48.094;11.478;2022-07-29T07:05:52;95162.44;;;22.13;100.00
19457;BME280;9867;48.094;11.478;2022-07-29T07:08:21;95163.22;;;22.14;100.00
19457;BME280;9867;48.094;11.478;2022-07-29T07:10:50;95159.72;;;22.33;100.00
19457;BME280;9867;48.094;11.478;2022-07-29T07:13:18;95156.84;;;22.35;100.00
19457;BME280;9867;48.094;11.478;2022-07-29T07:15:47;95154.94;;;22.45;100.00
19457;BME280;9867;48.094;11.478;2022-07-29T07:18:17;95159.13;;;22.46;100.00
19457;BME280;9867;48.094;11.478;2022-07-29T07:20:45;95163.53;;;22.51;100.00
19457;BME280;9867;48.094;11.478;2022-07-29T07:23:14;95159.03;;;22.62;100.00
19457;BME280;9867;48.094;11.478;2022-07-29T07:25:41;95161.97;;;22.94;100.00
19457;BME280;9867;48.094;11.478;2022-07-29T07:28:09;95155.63;;;23.05;100.00
19457;BME280;9867;48.094;11.478;2022-07-29T07:30:37;95153.63;;;22.92;100.00
19457;BME280;9867;48.094;11.478;2022-07-29T07:33:07;95155.03;;;23.13;100.00
19457;BME280;9867;48.094;11.478;2022-07-29T07:35:35;95160.22;;;23.19;100.00
19457;BME280;9867;48.094;11.478;2022-07-29T07:38:02;95153.00;;;23.05;100.00
19457;BME280;9867;48.094;11.478;2022-07-29T07:40:32;95159.81;;;23.06;100.00
19457;BME280;9867;48.094;11.478;2022-07-29T07:43:00;95159.25;;;23.09;100.00
19457;BME280;9867;48.094;11.478;2022-07-29T07:45:29;95166.97;;;23.25;100.00
19457;BME280;9867;48.094;11.478;2022-07-29T07:47:59;95155.69;;;23.29;100.00
19457;BME280;9867;48.094;11.478;2022-07-29T07:50:28;95152.88;;;23.55;100.00
19457;BME280;9867;48.094;11.478;2022-07-29T07:52:56;95153.72;;;23.74;100.00
19457;BME280;9867;48.094;11.478;2022-07-29T07:55:25;95161.56;;;23.74;100.00
19457;BME280;9867;48.094;11.478;2022-07-29T07:57:53;95162.84;;;23.53;100.00
19457;BME280;9867;48.094;11.478;2022-07-29T08:00:22;95165.97;;;23.78;100.00
19457;BME280;9867;48.094;11.478;2022-07-29T08:02:50;95161.94;;;23.86;100.00
19457;BME280;9867;48.094;11.478;2022-07-29T08:05:18;95160.41;;;23.85;100.00
19457;BME280;9867;48.094;11.478;2022-07-29T08:07:47;95167.38;;;23.95;100.00
19457;BME280;9867;48.094;11.478;2022-07-29T08:10:16;95173.38;;;24.19;100.00
19457;BME280;9867;48.094;11.478;2022-07-29T08:13:06;95173.50;;;24.09;100.00
19457;BME280;9867;48.094;11.478;2022-07-29T08:15:35;95178.34;;;23.97;100.00
19457;BME280;9867;48.094;11.478;2022-07-29T08:18:03;95169.00;;;24.09;100.00
19457;BME280;9867;48.094;11.478;2022-07-29T08:20:34;95179.91;;;24.22;100.00
19457;BME280;9867;48.094;11.478;2022-07-29T08:23:05;95157.69;;;24.38;100.00
19457;BME280;9867;48.094;11.478;2022-07-29T08:25:35;95160.91;;;24.54;100.00
19457;BME280;9867;48.094;11.478;2022-07-29T08:28:05;95158.25;;;24.91;100.00
19457;BME280;9867;48.094;11.478;2022-07-29T08:30:33;95163.84;;;25.22;100.00
19457;BME280;9867;48.094;11.478;2022-07-29T08:33:01;95166.91;;;25.43;100.00
19457;BME280;9867;48.094;11.478;2022-07-29T08:35:29;95168.13;;;25.78;100.00
19457;BME280;9867;48.094;11.478;2022-07-29T08:38:03;95176.00;;;25.64;100.00
19457;BME280;9867;48.094;11.478;2022-07-29T08:40:31;95170.47;;;26.07;95.68
19457;BME280;9867;48.094;11.478;2022-07-29T08:43:04;95164.72;;;25.77;100.00
19457;BME280;9867;48.094;11.478;2022-07-29T08:45:41;95169.03;;;25.73;100.00
19457;BME280;9867;48.094;11.478;2022-07-29T08:48:14;95169.03;;;25.87;100.00
19457;BME280;9867;48.094;11.478;2022-07-29T08:50:43;95174.00;;;25.89;100.00
19457;BME280;9867;48.094;11.478;2022-07-29T08:53:17;95172.06;;;25.94;100.00
19457;BME280;9867;48.094;11.478;2022-07-29T08:55:46;95180.31;;;26.01;98.63
19457;BME280;9867;48.094;11.478;2022-07-29T08:58:15;95186.16;;;25.85;100.00
19457;BME280;9867;48.094;11.478;2022-07-29T09:00:51;95189.84;;;26.25;99.24
19457;BME280;9867;48.094;11.478;2022-07-29T09:03:23;95180.81;;;26.03;97.10
19457;BME280;9867;48.094;11.478;2022-07-29T09:05:51;95193.09;;;26.08;97.21
19457;BME280;9867;48.094;11.478;2022-07-29T09:08:21;95180.91;;;26.12;95.78
19457;BME280;9867;48.094;11.478;2022-07-29T09:10:50;95192.91;;;25.58;100.00
19457;BME280;9867;48.094;11.478;2022-07-29T09:13:18;95194.53;;;26.00;100.00
19457;BME280;9867;48.094;11.478;2022-07-29T09:15:46;95189.69;;;26.21;99.52
19457;BME280;9867;48.094;11.478;2022-07-29T09:18:33;95181.38;;;26.28;99.10
19457;BME280;9867;48.094;11.478;2022-07-29T09:21:02;95175.66;;;26.75;94.41
19457;BME280;9867;48.094;11.478;2022-07-29T09:24:07;95181.19;;;26.88;95.20
19457;BME280;9867;48.094;11.478;2022-07-29T09:26:37;95176.56;;;27.07;91.19
19457;BME280;9867;48.094;11.478;2022-07-29T09:29:10;95172.63;;;26.82;95.37
19457;BME280;9867;48.094;11.478;2022-07-29T09:31:40;95174.84;;;26.53;98.49
19457;BME280;9867;48.094;11.478;2022-07-29T09:34:10;95176.13;;;26.28;99.64
19457;BME280;9867;48.094;11.478;2022-07-29T09:36:39;95184.28;;;26.26;100.00
19457;BME280;9867;48.094;11.478;2022-07-29T09:39:09;95182.09;;;26.20;100.00
19457;BME280;9867;48.094;11.478;2022-07-29T09:41:49;95181.31;;;25.92;100.00
19457;BME280;9867;48.094;11.478;2022-07-29T09:44:19;95176.34;;;25.58;100.00
19457;BME280;9867;48.094;11.478;2022-07-29T09:46:58;95175.72;;;25.66;100.00
19457;BME280;9867;48.094;11.478;2022-07-29T09:49:32;95174.56;;;25.99;100.00
19457;BME280;9867;48.094;11.478;2022-07-29T09:52:03;95174.78;;;25.57;100.00
19457;BME280;9867;48.094;11.478;2022-07-29T09:54:34;95169.41;;;25.34;100.00
19457;BME280;9867;48.094;11.478;2022-07-29T09:57:05;95182.53;;;25.67;100.00
19457;BME280;9867;48.094;11.478;2022-07-29T09:59:35;95175.44;;;26.08;100.00
19457;BME280;9867;48.094;11.478;2022-07-29T10:02:16;95178.06;;;25.67;100.00
19457;BME280;9867;48.094;11.478;2022-07-29T10:04:49;95174.28;;;25.73;100.00
19457;BME280;9867;48.094;11.478;2022-07-29T10:07:17;95174.09;;;25.97;100.00
19457;BME280;9867;48.094;11.478;2022-07-29T10:09:52;95178.75;;;25.87;100.00
19457;BME280;9867;48.094;11.478;2022-07-29T10:12:21;95185.50;;;25.46;100.00
19457;BME280;9867;48.094;11.478;2022-07-29T10:14:50;95176.84;;;25.60;100.00
19457;BME280;9867;48.094;11.478;2022-07-29T10:17:18;95172.81;;;25.67;100.00
19457;BME280;9867;48.094;11.478;2022-07-29T10:19:47;95173.38;;;25.78;100.00
19457;BME280;9867;48.094;11.478;2022-07-29T10:22:17;95173.44;;;25.59;100.00
19457;BME280;9867;48.094;11.478;2022-07-29T10:25:08;95174.88;;;25.84;100.00
19457;BME280;9867;48.094;11.478;2022-07-29T10:27:36;95179.75;;;25.58;100.00
19457;BME280;9867;48.094;11.478;2022-07-29T10:30:06;95179.53;;;26.01;100.00
19457;BME280;9867;48.094;11.478;2022-07-29T10:32:42;95181.38;;;26.00;100.00
19457;BME280;9867;48.094;11.478;2022-07-29T10:35:27;95165.88;;;26.26;100.00
19457;BME280;9867;48.094;11.478;2022-07-29T10:38:26;95177.72;;;25.55;100.00
19457;BME280;9867;48.094;11.478;2022-07-29T10:41:02;95167.34;;;25.77;100.00
19457;BME280;9867;48.094;11.478;2022-07-29T10:43:48;95173.69;;;26.04;100.00
19457;BME280;9867;48.094;11.478;2022-07-29T10:46:18;95152.69;;;26.67;99.21
19457;BME280;9867;48.094;11.478;2022-07-29T10:49:06;95161.59;;;27.47;97.36
19457;BME280;9867;48.094;11.478;2022-07-29T10:51:54;95162.78;;;27.10;93.76
19457;BME280;9867;48.094;11.478;2022-07-29T10:54:44;95158.00;;;27.12;92.41
19457;BME280;9867;48.094;11.478;2022-07-29T10:57:17;95151.19;;;27.42;92.77
19457;BME280;9867;48.094;11.478;2022-07-29T10:59:47;95153.81;;;27.42;88.73
19457;BME280;9867;48.094;11.478;2022-07-29T11:02:43;95151.91;;;26.89;90.79
19457;BME280;9867;48.094;11.478;2022-07-29T11:05:16;95157.00;;;26.86;85.53
19457;BME280;9867;48.094;11.478;2022-07-29T11:08:20;95153.06;;;27.19;81.99
19457;BME280;9867;48.094;11.478;2022-07-29T11:14:04;95152.44;;;27.13;87.98
19457;BME280;9867;48.094;11.478;2022-07-29T11:16:58;95157.13;;;26.80;91.53
19457;BME280;9867;48.094;11.478;2022-07-29T11:19:26;95155.84;;;27.14;85.62
19457;BME280;9867;48.094;11.478;2022-07-29T11:21:57;95149.34;;;27.20;83.99
19457;BME280;9867;48.094;11.478;2022-07-29T11:24:26;95145.53;;;27.26;86.96
19457;BME280;9867;48.094;11.478;2022-07-29T11:27:06;95148.28;;;27.52;80.78
19457;BME280;9867;48.094;11.478;2022-07-29T11:29:38;95139.75;;;27.77;75.59
19457;BME280;9867;48.094;11.478;2022-07-29T11:32:10;95145.31;;;27.76;66.51
19457;BME280;9867;48.094;11.478;2022-07-29T11:34:44;95138.28;;;27.32;72.09
19457;BME280;9867;48.094;11.478;2022-07-29T11:37:20;95136.00;;;27.39;75.04
19457;BME280;9867;48.094;11.478;2022-07-29T11:40:13;95133.19;;;27.35;77.25
19457;BME280;9867;48.094;11.478;2022-07-29T11:42:48;95134.13;;;27.70;79.29
19457;BME280;9867;48.094;11.478;2022-07-29T11:45:45;95125.97;;;27.80;74.05
19457;BME280;9867;48.094;11.478;2022-07-29T11:48:15;95133.19;;;28.14;71.21
19457;BME280;9867;48.094;11.478;2022-07-29T11:50:58;95126.69;;;28.21;70.67
19457;BME280;9867;48.094;11.478;2022-07-29T11:53:27;95127.38;;;28.52;71.12
19457;BME280;9867;48.094;11.478;2022-07-29T11:55:59;95130.00;;;28.52;66.82
19457;BME280;9867;48.094;11.478;2022-07-29T11:58:29;95123.19;;;28.77;64.76
19457;BME280;9867;48.094;11.478;2022-07-29T12:00:59;95123.94;;;28.34;66.56
19457;BME280;9867;48.094;11.478;2022-07-29T12:03:30;95128.16;;;28.87;61.48
19457;BME280;9867;48.094;11.478;2022-07-29T12:06:02;95122.72;;;28.58;64.53
19457;BME280;9867;48.094;11.478;2022-07-29T12:08:40;95114.63;;;28.71;67.23
19457;BME280;9867;48.094;11.478;2022-07-29T12:11:15;95111.84;;;28.68;61.97
19457;BME280;9867;48.094;11.478;2022-07-29T12:13:48;95125.09;;;28.02;65.76
19457;BME280;9867;48.094;11.478;2022-07-29T12:16:18;95114.00;;;28.31;66.96
19457;BME280;9867;48.094;11.478;2022-07-29T12:18:59;95114.19;;;27.87;68.70
19457;BME280;9867;48.094;11.478;2022-07-29T12:21:28;95112.50;;;27.99;70.78
19457;BME280;9867;48.094;11.478;2022-07-29T12:23:57;95109.94;;;28.25;67.89
19457;BME280;9867;48.094;11.478;2022-07-29T12:26:35;95112.72;;;27.72;70.18
19457;BME280;9867;48.094;11.478;2022-07-29T12:29:06;95118.13;;;27.58;73.88
19457;BME280;9867;48.094;11.478;2022-07-29T12:31:42;95102.56;;;27.96;71.05
19457;BME280;9867;48.094;11.478;2022-07-29T12:34:12;95109.03;;;28.64;67.51
19457;BME280;9867;48.094;11.478;2022-07-29T12:36:40;95099.66;;;28.15;70.77
19457;BME280;9867;48.094;11.478;2022-07-29T12:39:09;95101.69;;;28.09;68.93
19457;BME280;9867;48.094;11.478;2022-07-29T12:41:38;95098.53;;;27.99;72.44
19457;BME280;9867;48.094;11.478;2022-07-29T12:44:06;95094.59;;;27.70;77.00
19457;BME280;9867;48.094;11.478;2022-07-29T12:46:35;95083.59;;;27.46;77.48
19457;BME280;9867;48.094;11.478;2022-07-29T12:49:06;95096.88;;;27.32;83.26
19457;BME280;9867;48.094;11.478;2022-07-29T12:51:36;95112.94;;;26.77;84.50
19457;BME280;9867;48.094;11.478;2022-07-29T12:54:07;95104.25;;;26.55;87.61
19457;BME280;9867;48.094;11.478;2022-07-29T12:56:37;95105.56;;;26.43;90.50
19457;BME280;9867;48.094;11.478;2022-07-29T12:59:14;95100.19;;;26.48;91.04
19457;BME280;9867;48.094;11.478;2022-07-29T13:01:42;95101.03;;;26.58;91.74
19457;BME280;9867;48.094;11.478;2022-07-29T13:04:24;95120.31;;;26.17;93.69
19457;BME280;9867;48.094;11.478;2022-07-29T13:06:58;95111.69;;;25.89;95.75
19457;BME280;9867;48.094;11.478;2022-07-29T13:09:36;95108.94;;;25.80;99.09
19457;BME280;9867;48.094;11.478;2022-07-29T13:12:07;95110.09;;;25.61;99.38
19457;BME280;9867;48.094;11.478;2022-07-29T13:14:37;95105.06;;;25.64;100.00
19457;BME280;9867;48.094;11.478;2022-07-29T13:17:07;95118.50;;;25.63;100.00
19457;BME280;9867;48.094;11.478;2022-07-29T13:19:38;95115.91;;;25.58;100.00